sensor_id;sensor_type;location;lat;lon;timestamp;pressure;altitude;pressure_sealevel;temperature
12430;BMP280;6279;42.192;24.326;2022-10-19T00:02:16;99774.56;;;6.90
12430;BMP280;6279;42.192;24.326;2022-10-19T00:04:42;99774.03;;;6.76
12430;BMP280;6279;42.192;24.326;2022-10-19T00:07:07;99772.91;;;6.69
12430;BMP280;6279;42.192;24.326;2022-10-19T00:09:33;99770.59;;;6.66
12430;BMP280;6279;42.192;24.326;2022-10-19T00:11:58;99768.94;;;6.65
12430;BMP280;6279;42.192;24.326;2022-10-19T00:14:24;99765.03;;;6.71
12430;BMP280;6279;42.192;24.326;2022-10-19T00:16:51;99765.00;;;6.81
12430;BMP280;6279;42.192;24.326;2022-10-19T00:19:23;99757.66;;;6.86
12430;BMP280;6279;42.192;24.326;2022-10-19T00:21:49;99761.00;;;6.78
12430;BMP280;6279;42.192;24.326;2022-10-19T00:24:15;99745.13;;;6.82
12430;BMP280;6279;42.192;24.326;2022-10-19T00:26:41;99755.09;;;6.66
12430;BMP280;6279;42.192;24.326;2022-10-19T00:29:07;99748.56;;;6.72
12430;BMP280;6279;42.192;24.326;2022-10-19T00:31:32;99735.09;;;6.68
12430;BMP280;6279;42.192;24.326;2022-10-19T00:33:58;99742.06;;;6.77
12430;BMP280;6279;42.192;24.326;2022-10-19T00:36:25;99728.16;;;6.69
12430;BMP280;6279;42.192;24.326;2022-10-19T00:38:52;99722.34;;;6.76
12430;BMP280;6279;42.192;24.326;2022-10-19T00:41:18;99732.19;;;6.82
12430;BMP280;6279;42.192;24.326;2022-10-19T00:43:59;99725.56;;;6.89
12430;BMP280;6279;42.192;24.326;2022-10-19T00:46:26;99720.13;;;6.92
12430;BMP280;6279;42.192;24.326;2022-10-19T00:48:57;99715.22;;;6.89
12430;BMP280;6279;42.192;24.326;2022-10-19T00:51:24;99705.97;;;6.86
12430;BMP280;6279;42.192;24.326;2022-10-19T00:53:51;99708.16;;;6.91
12430;BMP280;6279;42.192;24.326;2022-10-19T00:56:17;99702.97;;;6.91
12430;BMP280;6279;42.192;24.326;2022-10-19T00:58:43;99707.22;;;6.92
12430;BMP280;6279;42.192;24.326;2022-10-19T01:01:11;99696.97;;;6.81
12430;BMP280;6279;42.192;24.326;2022-10-19T01:03:38;99703.75;;;6.82
12430;BMP280;6279;42.192;24.326;2022-10-19T01:06:03;99702.81;;;6.63
12430;BMP280;6279;42.192;24.326;2022-10-19T01:08:29;99703.44;;;6.56
12430;BMP280;6279;42.192;24.326;2022-10-19T01:11:29;99692.47;;;6.43
12430;BMP280;6279;42.192;24.326;2022-10-19T01:17:08;99692.16;;;6.56
12430;BMP280;6279;42.192;24.326;2022-10-19T01:20:12;99689.44;;;6.58
12430;BMP280;6279;42.192;24.326;2022-10-19T01:25:48;99688.50;;;6.39
12430;BMP280;6279;42.192;24.326;2022-10-19T01:28:23;99680.84;;;6.17
12430;BMP280;6279;42.192;24.326;2022-10-19T01:33:57;99678.66;;;6.33
12430;BMP280;6279;42.192;24.326;2022-10-19T01:36:36;99679.38;;;6.35
12430;BMP280;6279;42.192;24.326;2022-10-19T01:42:13;99680.31;;;6.34
12430;BMP280;6279;42.192;24.326;2022-10-19T01:47:26;99657.63;;;6.37
12430;BMP280;6279;42.192;24.326;2022-10-19T01:50:25;99663.28;;;6.12
12430;BMP280;6279;42.192;24.326;2022-10-19T01:52:54;99654.03;;;6.09
12430;BMP280;6279;42.192;24.326;2022-10-19T01:55:20;99663.28;;;6.12
12430;BMP280;6279;42.192;24.326;2022-10-19T01:57:52;99651.53;;;6.08
12430;BMP280;6279;42.192;24.326;2022-10-19T02:00:21;99655.53;;;6.12
12430;BMP280;6279;42.192;24.326;2022-10-19T02:02:50;99653.53;;;6.15
12430;BMP280;6279;42.192;24.326;2022-10-19T02:05:19;99636.97;;;6.17
12430;BMP280;6279;42.192;24.326;2022-10-19T02:07:49;99634.13;;;6.20
12430;BMP280;6279;42.192;24.326;2022-10-19T02:10:17;99630.84;;;6.18
12430;BMP280;6279;42.192;24.326;2022-10-19T02:12:43;99632.72;;;6.16
12430;BMP280;6279;42.192;24.326;2022-10-19T02:15:13;99631.09;;;6.15
12430;BMP280;6279;42.192;24.326;2022-10-19T02:17:44;99640.34;;;6.18
12430;BMP280;6279;42.192;24.326;2022-10-19T02:20:11;99627.81;;;6.13
12430;BMP280;6279;42.192;24.326;2022-10-19T02:22:37;99628.91;;;6.11
12430;BMP280;6279;42.192;24.326;2022-10-19T02:25:03;99628.78;;;6.13
12430;BMP280;6279;42.192;24.326;2022-10-19T02:27:29;99624.28;;;6.14
12430;BMP280;6279;42.192;24.326;2022-10-19T02:29:55;99622.41;;;6.16
12430;BMP280;6279;42.192;24.326;2022-10-19T02:32:20;99623.22;;;6.17
12430;BMP280;6279;42.192;24.326;2022-10-19T02:34:46;99619.25;;;6.13
12430;BMP280;6279;42.192;24.326;2022-10-19T02:37:11;99623.59;;;6.13
12430;BMP280;6279;42.192;24.326;2022-10-19T02:39:37;99621.72;;;6.14
12430;BMP280;6279;42.192;24.326;2022-10-19T02:42:10;99611.66;;;6.12
12430;BMP280;6279;42.192;24.326;2022-10-19T02:44:41;99612.00;;;6.07
12430;BMP280;6279;42.192;24.326;2022-10-19T02:47:21;99606.81;;;6.07
12430;BMP280;6279;42.192;24.326;2022-10-19T02:49:48;99603.25;;;5.99
12430;BMP280;6279;42.192;24.326;2022-10-19T02:52:14;99608.53;;;5.97
12430;BMP280;6279;42.192;24.326;2022-10-19T02:54:42;99597.91;;;5.91
12430;BMP280;6279;42.192;24.326;2022-10-19T02:57:19;99598.59;;;5.93
12430;BMP280;6279;42.192;24.326;2022-10-19T02:59:45;99595.31;;;5.91
12430;BMP280;6279;42.192;24.326;2022-10-19T03:02:11;99598.25;;;5.87
12430;BMP280;6279;42.192;24.326;2022-10-19T03:04:37;99595.59;;;5.77
12430;BMP280;6279;42.192;24.326;2022-10-19T03:07:03;99578.06;;;5.61
12430;BMP280;6279;42.192;24.326;2022-10-19T03:09:28;99592.72;;;5.60
12430;BMP280;6279;42.192;24.326;2022-10-19T03:11:54;99586.94;;;5.68
12430;BMP280;6279;42.192;24.326;2022-10-19T03:14:20;99587.19;;;5.65
12430;BMP280;6279;42.192;24.326;2022-10-19T03:16:45;99584.22;;;5.80
12430;BMP280;6279;42.192;24.326;2022-10-19T03:19:11;99588.69;;;5.78
12430;BMP280;6279;42.192;24.326;2022-10-19T03:21:36;99585.53;;;5.74
12430;BMP280;6279;42.192;24.326;2022-10-19T03:24:02;99579.44;;;5.75
12430;BMP280;6279;42.192;24.326;2022-10-19T03:26:27;99582.00;;;5.75
12430;BMP280;6279;42.192;24.326;2022-10-19T03:28:52;99582.97;;;5.74
12430;BMP280;6279;42.192;24.326;2022-10-19T03:31:18;99573.59;;;5.73
12430;BMP280;6279;42.192;24.326;2022-10-19T03:33:44;99585.28;;;5.67
12430;BMP280;6279;42.192;24.326;2022-10-19T03:36:14;99580.63;;;5.61
12430;BMP280;6279;42.192;24.326;2022-10-19T03:38:39;99578.31;;;5.58
12430;BMP280;6279;42.192;24.326;2022-10-19T03:41:06;99577.81;;;5.53
12430;BMP280;6279;42.192;24.326;2022-10-19T03:43:31;99580.19;;;5.56
12430;BMP280;6279;42.192;24.326;2022-10-19T03:45:57;99580.75;;;5.59
12430;BMP280;6279;42.192;24.326;2022-10-19T03:48:22;99579.44;;;5.65
12430;BMP280;6279;42.192;24.326;2022-10-19T03:50:47;99572.75;;;5.73
12430;BMP280;6279;42.192;24.326;2022-10-19T03:53:13;99561.84;;;5.69
12430;BMP280;6279;42.192;24.326;2022-10-19T03:55:39;99563.13;;;5.64
12430;BMP280;6279;42.192;24.326;2022-10-19T03:58:04;99570.28;;;5.71
12430;BMP280;6279;42.192;24.326;2022-10-19T04:00:29;99563.72;;;5.68
12430;BMP280;6279;42.192;24.326;2022-10-19T04:02:55;99563.13;;;5.64
12430;BMP280;6279;42.192;24.326;2022-10-19T04:05:20;99556.59;;;5.60
12430;BMP280;6279;42.192;24.326;2022-10-19T04:07:46;99552.38;;;5.59
12430;BMP280;6279;42.192;24.326;2022-10-19T04:10:11;99558.47;;;5.58
12430;BMP280;6279;42.192;24.326;2022-10-19T04:12:36;99549.69;;;5.50
12430;BMP280;6279;42.192;24.326;2022-10-19T04:15:02;99555.13;;;5.36
12430;BMP280;6279;42.192;24.326;2022-10-19T04:17:27;99558.00;;;5.23
12430;BMP280;6279;42.192;24.326;2022-10-19T04:19:53;99554.25;;;5.16
12430;BMP280;6279;42.192;24.326;2022-10-19T04:22:18;99557.69;;;5.05
12430;BMP280;6279;42.192;24.326;2022-10-19T04:24:44;99557.44;;;5.08
12430;BMP280;6279;42.192;24.326;2022-10-19T04:27:09;99549.97;;;5.05
12430;BMP280;6279;42.192;24.326;2022-10-19T04:29:34;99551.47;;;5.19
12430;BMP280;6279;42.192;24.326;2022-10-19T04:32:00;99550.28;;;5.23
12430;BMP280;6279;42.192;24.326;2022-10-19T04:34:25;99541.09;;;5.29
12430;BMP280;6279;42.192;24.326;2022-10-19T04:36:51;99538.19;;;5.23
12430;BMP280;6279;42.192;24.326;2022-10-19T04:39:17;99541.59;;;5.24
12430;BMP280;6279;42.192;24.326;2022-10-19T04:41:42;99544.63;;;5.28
12430;BMP280;6279;42.192;24.326;2022-10-19T04:44:08;99537.63;;;5.20
12430;BMP280;6279;42.192;24.326;2022-10-19T04:46:34;99532.47;;;5.20
12430;BMP280;6279;42.192;24.326;2022-10-19T04:48:59;99536.63;;;5.31
12430;BMP280;6279;42.192;24.326;2022-10-19T04:51:25;99537.56;;;5.41
12430;BMP280;6279;42.192;24.326;2022-10-19T04:53:51;99533.66;;;5.46
12430;BMP280;6279;42.192;24.326;2022-10-19T04:56:22;99533.78;;;5.45
12430;BMP280;6279;42.192;24.326;2022-10-19T04:58:50;99529.63;;;5.53
12430;BMP280;6279;42.192;24.326;2022-10-19T05:01:19;99533.13;;;5.63
12430;BMP280;6279;42.192;24.326;2022-10-19T05:03:46;99533.00;;;5.65
12430;BMP280;6279;42.192;24.326;2022-10-19T05:06:12;99525.94;;;5.67
12430;BMP280;6279;42.192;24.326;2022-10-19T05:08:38;99520.34;;;5.72
12430;BMP280;6279;42.192;24.326;2022-10-19T05:11:10;99518.19;;;5.77
12430;BMP280;6279;42.192;24.326;2022-10-19T05:13:36;99514.16;;;5.84
12430;BMP280;6279;42.192;24.326;2022-10-19T05:16:03;99522.78;;;5.94
12430;BMP280;6279;42.192;24.326;2022-10-19T05:18:29;99524.91;;;5.89
12430;BMP280;6279;42.192;24.326;2022-10-19T05:21:02;99526.75;;;5.98
12430;BMP280;6279;42.192;24.326;2022-10-19T05:23:28;99527.56;;;5.98
12430;BMP280;6279;42.192;24.326;2022-10-19T05:26:01;99524.50;;;6.34
12430;BMP280;6279;42.192;24.326;2022-10-19T05:28:28;99521.19;;;6.52
12430;BMP280;6279;42.192;24.326;2022-10-19T05:30:53;99523.84;;;6.70
12430;BMP280;6279;42.192;24.326;2022-10-19T05:33:19;99525.13;;;6.94
12430;BMP280;6279;42.192;24.326;2022-10-19T05:35:44;99518.25;;;7.22
12430;BMP280;6279;42.192;24.326;2022-10-19T05:38:10;99509.56;;;7.70
12430;BMP280;6279;42.192;24.326;2022-10-19T05:40:35;99509.44;;;8.44
12430;BMP280;6279;42.192;24.326;2022-10-19T05:43:00;99511.41;;;9.29
12430;BMP280;6279;42.192;24.326;2022-10-19T05:45:26;99494.66;;;9.92
12430;BMP280;6279;42.192;24.326;2022-10-19T05:47:51;99500.13;;;10.56
12430;BMP280;6279;42.192;24.326;2022-10-19T05:50:17;99494.81;;;11.22
12430;BMP280;6279;42.192;24.326;2022-10-19T05:52:43;99490.06;;;11.82
12430;BMP280;6279;42.192;24.326;2022-10-19T05:55:08;99495.84;;;12.30
12430;BMP280;6279;42.192;24.326;2022-10-19T05:57:34;99499.66;;;12.81
12430;BMP280;6279;42.192;24.326;2022-10-19T05:59:59;99502.59;;;13.46
12430;BMP280;6279;42.192;24.326;2022-10-19T06:02:24;99495.00;;;13.81
12430;BMP280;6279;42.192;24.326;2022-10-19T06:04:50;99488.63;;;14.19
12430;BMP280;6279;42.192;24.326;2022-10-19T06:07:15;99486.66;;;14.92
12430;BMP280;6279;42.192;24.326;2022-10-19T06:09:40;99477.56;;;15.57
12430;BMP280;6279;42.192;24.326;2022-10-19T06:12:06;99481.41;;;16.23
12430;BMP280;6279;42.192;24.326;2022-10-19T06:14:31;99486.84;;;16.48
12430;BMP280;6279;42.192;24.326;2022-10-19T06:16:57;99484.09;;;16.63
12430;BMP280;6279;42.192;24.326;2022-10-19T06:19:22;99475.47;;;17.02
12430;BMP280;6279;42.192;24.326;2022-10-19T06:21:48;99481.69;;;17.59
12430;BMP280;6279;42.192;24.326;2022-10-19T06:24:13;99476.25;;;17.67
12430;BMP280;6279;42.192;24.326;2022-10-19T06:26:38;99473.22;;;17.83
12430;BMP280;6279;42.192;24.326;2022-10-19T06:29:06;99473.06;;;18.16
12430;BMP280;6279;42.192;24.326;2022-10-19T06:31:34;99477.69;;;18.52
12430;BMP280;6279;42.192;24.326;2022-10-19T06:33:59;99462.66;;;19.28
12430;BMP280;6279;42.192;24.326;2022-10-19T06:36:27;99461.50;;;19.91
12430;BMP280;6279;42.192;24.326;2022-10-19T06:38:53;99447.72;;;20.30
12430;BMP280;6279;42.192;24.326;2022-10-19T06:41:19;99449.72;;;20.94
12430;BMP280;6279;42.192;24.326;2022-10-19T06:43:49;99449.66;;;22.38
12430;BMP280;6279;42.192;24.326;2022-10-19T06:46:15;99442.81;;;23.37
12430;BMP280;6279;42.192;24.326;2022-10-19T06:48:58;99441.06;;;24.02
12430;BMP280;6279;42.192;24.326;2022-10-19T06:51:25;99439.00;;;24.36
12430;BMP280;6279;42.192;24.326;2022-10-19T06:53:53;99438.94;;;25.27
12430;BMP280;6279;42.192;24.326;2022-10-19T06:56:19;99437.47;;;25.92
12430;BMP280;6279;42.192;24.326;2022-10-19T06:58:45;99437.44;;;26.89
12430;BMP280;6279;42.192;24.326;2022-10-19T07:01:10;99434.56;;;27.80
12430;BMP280;6279;42.192;24.326;2022-10-19T07:03:38;99430.16;;;29.07
12430;BMP280;6279;42.192;24.326;2022-10-19T07:06:07;99425.84;;;30.05
12430;BMP280;6279;42.192;24.326;2022-10-19T07:08:33;99421.19;;;30.16
12430;BMP280;6279;42.192;24.326;2022-10-19T07:11:01;99420.06;;;30.21
12430;BMP280;6279;42.192;24.326;2022-10-19T07:13:28;99418.22;;;30.17
12430;BMP280;6279;42.192;24.326;2022-10-19T07:15:58;99406.97;;;31.58
12430;BMP280;6279;42.192;24.326;2022-10-19T07:18:25;99413.28;;;32.47
12430;BMP280;6279;42.192;24.326;2022-10-19T07:20:58;99405.75;;;32.89
12430;BMP280;6279;42.192;24.326;2022-10-19T07:23:24;99406.50;;;32.37
12430;BMP280;6279;42.192;24.326;2022-10-19T07:25:51;99395.75;;;33.77
12430;BMP280;6279;42.192;24.326;2022-10-19T07:28:19;99401.16;;;33.29
12430;BMP280;6279;42.192;24.326;2022-10-19T07:30:44;99406.47;;;33.07
12430;BMP280;6279;42.192;24.326;2022-10-19T07:33:13;99398.22;;;31.84
12430;BMP280;6279;42.192;24.326;2022-10-19T07:35:38;99390.53;;;32.40
12430;BMP280;6279;42.192;24.326;2022-10-19T07:38:04;99387.75;;;32.45
12430;BMP280;6279;42.192;24.326;2022-10-19T07:40:29;99377.91;;;32.09
12430;BMP280;6279;42.192;24.326;2022-10-19T07:42:54;99379.75;;;32.27
12430;BMP280;6279;42.192;24.326;2022-10-19T07:45:20;99380.59;;;33.33
12430;BMP280;6279;42.192;24.326;2022-10-19T07:47:45;99367.56;;;33.83
12430;BMP280;6279;42.192;24.326;2022-10-19T07:50:11;99369.78;;;34.02
12430;BMP280;6279;42.192;24.326;2022-10-19T07:52:36;99369.03;;;33.06
12430;BMP280;6279;42.192;24.326;2022-10-19T07:55:01;99361.16;;;33.57
12430;BMP280;6279;42.192;24.326;2022-10-19T07:57:27;99355.53;;;34.40
12430;BMP280;6279;42.192;24.326;2022-10-19T07:59:52;99352.63;;;34.28
12430;BMP280;6279;42.192;24.326;2022-10-19T08:02:18;99349.03;;;35.26
12430;BMP280;6279;42.192;24.326;2022-10-19T08:04:54;99350.63;;;33.21
12430;BMP280;6279;42.192;24.326;2022-10-19T08:07:27;99344.38;;;32.86
12430;BMP280;6279;42.192;24.326;2022-10-19T08:09:55;99342.41;;;32.78
12430;BMP280;6279;42.192;24.326;2022-10-19T08:12:20;99333.25;;;32.35
12430;BMP280;6279;42.192;24.326;2022-10-19T08:14:46;99329.84;;;32.61
12430;BMP280;6279;42.192;24.326;2022-10-19T08:17:12;99328.47;;;32.32
12430;BMP280;6279;42.192;24.326;2022-10-19T08:19:40;99327.38;;;30.80
12430;BMP280;6279;42.192;24.326;2022-10-19T08:22:07;99319.44;;;31.65
12430;BMP280;6279;42.192;24.326;2022-10-19T08:24:32;99312.91;;;32.16
12430;BMP280;6279;42.192;24.326;2022-10-19T08:26:58;99312.69;;;31.81
12430;BMP280;6279;42.192;24.326;2022-10-19T08:29:27;99301.84;;;31.36
12430;BMP280;6279;42.192;24.326;2022-10-19T08:31:53;99299.44;;;32.16
12430;BMP280;6279;42.192;24.326;2022-10-19T08:34:19;99301.47;;;31.92
12430;BMP280;6279;42.192;24.326;2022-10-19T08:36:44;99295.91;;;31.21
12430;BMP280;6279;42.192;24.326;2022-10-19T08:39:20;99301.41;;;30.47
12430;BMP280;6279;42.192;24.326;2022-10-19T08:42:09;99292.47;;;30.98
12430;BMP280;6279;42.192;24.326;2022-10-19T08:47:09;99286.88;;;31.80
12430;BMP280;6279;42.192;24.326;2022-10-19T08:49:38;99289.91;;;33.80
12430;BMP280;6279;42.192;24.326;2022-10-19T08:52:09;99276.47;;;35.28
12430;BMP280;6279;42.192;24.326;2022-10-19T08:54:48;99276.19;;;36.89
12430;BMP280;6279;42.192;24.326;2022-10-19T09:07:50;99272.22;;;32.96
12430;BMP280;6279;42.192;24.326;2022-10-19T09:10:24;99271.97;;;31.87
12430;BMP280;6279;42.192;24.326;2022-10-19T09:12:58;99264.34;;;32.07
12430;BMP280;6279;42.192;24.326;2022-10-19T09:15:39;99253.22;;;33.36
12430;BMP280;6279;42.192;24.326;2022-10-19T09:18:18;99249.69;;;32.13
12430;BMP280;6279;42.192;24.326;2022-10-19T09:20:47;99245.97;;;31.96
12430;BMP280;6279;42.192;24.326;2022-10-19T09:23:20;99243.03;;;33.33
12430;BMP280;6279;42.192;24.326;2022-10-19T09:25:49;99247.31;;;32.64
12430;BMP280;6279;42.192;24.326;2022-10-19T09:30:57;99252.50;;;32.61
12430;BMP280;6279;42.192;24.326;2022-10-19T09:33:30;99239.75;;;31.20
12430;BMP280;6279;42.192;24.326;2022-10-19T09:35:57;99247.03;;;31.69
12430;BMP280;6279;42.192;24.326;2022-10-19T09:38:26;99238.16;;;31.01
12430;BMP280;6279;42.192;24.326;2022-10-19T09:40:52;99235.34;;;32.31
12430;BMP280;6279;42.192;24.326;2022-10-19T09:43:18;99230.25;;;31.09
12430;BMP280;6279;42.192;24.326;2022-10-19T09:48:26;99225.31;;;31.65
12430;BMP280;6279;42.192;24.326;2022-10-19T09:51:01;99224.84;;;31.90
12430;BMP280;6279;42.192;24.326;2022-10-19T09:53:27;99213.94;;;32.87
12430;BMP280;6279;42.192;24.326;2022-10-19T09:55:59;99207.88;;;33.16
12430;BMP280;6279;42.192;24.326;2022-10-19T09:58:28;99208.16;;;32.80
12430;BMP280;6279;42.192;24.326;2022-10-19T10:00:55;99207.03;;;32.07
12430;BMP280;6279;42.192;24.326;2022-10-19T10:03:23;99205.41;;;31.48
12430;BMP280;6279;42.192;24.326;2022-10-19T10:05:49;99205.50;;;30.94
12430;BMP280;6279;42.192;24.326;2022-10-19T10:08:18;99194.00;;;31.07
12430;BMP280;6279;42.192;24.326;2022-10-19T10:10:47;99188.78;;;31.15
12430;BMP280;6279;42.192;24.326;2022-10-19T10:13:19;99196.16;;;30.09
12430;BMP280;6279;42.192;24.326;2022-10-19T10:16:00;99187.41;;;30.63
12430;BMP280;6279;42.192;24.326;2022-10-19T10:18:28;99172.31;;;31.66
12430;BMP280;6279;42.192;24.326;2022-10-19T10:21:03;99182.38;;;31.42
12430;BMP280;6279;42.192;24.326;2022-10-19T10:23:35;99169.97;;;31.28
12430;BMP280;6279;42.192;24.326;2022-10-19T10:26:02;99173.28;;;31.56
12430;BMP280;6279;42.192;24.326;2022-10-19T10:28:29;99168.53;;;30.68
12430;BMP280;6279;42.192;24.326;2022-10-19T10:31:02;99162.72;;;31.28
12430;BMP280;6279;42.192;24.326;2022-10-19T10:33:30;99152.72;;;32.05
12430;BMP280;6279;42.192;24.326;2022-10-19T10:36:02;99151.41;;;31.31
12430;BMP280;6279;42.192;24.326;2022-10-19T10:38:34;99141.09;;;31.20
12430;BMP280;6279;42.192;24.326;2022-10-19T10:41:03;99145.00;;;31.28
12430;BMP280;6279;42.192;24.326;2022-10-19T10:43:33;99142.75;;;31.34
12430;BMP280;6279;42.192;24.326;2022-10-19T10:46:06;99139.34;;;30.80
12430;BMP280;6279;42.192;24.326;2022-10-19T10:48:42;99130.44;;;30.07
12430;BMP280;6279;42.192;24.326;2022-10-19T10:51:47;99127.97;;;30.10
12430;BMP280;6279;42.192;24.326;2022-10-19T10:54:28;99122.63;;;30.10
12430;BMP280;6279;42.192;24.326;2022-10-19T10:57:12;99117.28;;;30.83
12430;BMP280;6279;42.192;24.326;2022-10-19T11:00:11;99114.34;;;29.33
12430;BMP280;6279;42.192;24.326;2022-10-19T11:02:51;99097.72;;;31.27
12430;BMP280;6279;42.192;24.326;2022-10-19T11:05:30;99083.81;;;33.08
12430;BMP280;6279;42.192;24.326;2022-10-19T11:10:33;99089.50;;;31.89
12430;BMP280;6279;42.192;24.326;2022-10-19T11:13:14;99092.28;;;32.24
12430;BMP280;6279;42.192;24.326;2022-10-19T11:15:56;99084.38;;;32.27
12430;BMP280;6279;42.192;24.326;2022-10-19T11:18:43;99090.06;;;31.02
12430;BMP280;6279;42.192;24.326;2022-10-19T11:21:30;99082.38;;;30.64
12430;BMP280;6279;42.192;24.326;2022-10-19T11:29:33;99079.34;;;28.17
12430;BMP280;6279;42.192;24.326;2022-10-19T11:32:03;99079.19;;;27.22
12430;BMP280;6279;42.192;24.326;2022-10-19T11:51:16;99047.41;;;25.52
12430;BMP280;6279;42.192;24.326;2022-10-19T11:56:53;99032.47;;;25.47
12430;BMP280;6279;42.192;24.326;2022-10-19T11:59:34;99039.97;;;25.04
12430;BMP280;6279;42.192;24.326;2022-10-19T12:05:10;99032.72;;;25.00
12430;BMP280;6279;42.192;24.326;2022-10-19T12:13:01;99028.94;;;24.86
12430;BMP280;6279;42.192;24.326;2022-10-19T12:15:37;99024.19;;;24.93
12430;BMP280;6279;42.192;24.326;2022-10-19T12:18:11;99022.03;;;24.90
12430;BMP280;6279;42.192;24.326;2022-10-19T12:20:50;99018.84;;;24.93
12430;BMP280;6279;42.192;24.326;2022-10-19T12:23:20;99018.84;;;24.93
12430;BMP280;6279;42.192;24.326;2022-10-19T12:25:47;99010.06;;;24.92
12430;BMP280;6279;42.192;24.326;2022-10-19T12:28:21;99007.16;;;24.99
12430;BMP280;6279;42.192;24.326;2022-10-19T12:30:49;99006.41;;;25.03
12430;BMP280;6279;42.192;24.326;2022-10-19T12:51:51;98970.97;;;24.57
12430;BMP280;6279;42.192;24.326;2022-10-19T12:54:22;98977.25;;;24.46
12430;BMP280;6279;42.192;24.326;2022-10-19T12:56:50;98965.28;;;24.44
12430;BMP280;6279;42.192;24.326;2022-10-19T12:59:25;98968.72;;;24.40
12430;BMP280;6279;42.192;24.326;2022-10-19T13:01:52;98968.72;;;24.40
12430;BMP280;6279;42.192;24.326;2022-10-19T13:04:22;98967.38;;;24.37
12430;BMP280;6279;42.192;24.326;2022-10-19T13:07:00;98967.66;;;24.41
12430;BMP280;6279;42.192;24.326;2022-10-19T13:14:41;98970.03;;;24.37
12430;BMP280;6279;42.192;24.326;2022-10-19T13:17:08;98965.94;;;24.25
12430;BMP280;6279;42.192;24.326;2022-10-19T13:19:34;98967.13;;;24.13
12430;BMP280;6279;42.192;24.326;2022-10-19T13:24:33;98977.97;;;23.80
12430;BMP280;6279;42.192;24.326;2022-10-19T13:32:38;98959.41;;;23.59
12430;BMP280;6279;42.192;24.326;2022-10-19T13:56:51;98952.31;;;23.23
12430;BMP280;6279;42.192;24.326;2022-10-19T14:08:28;98943.13;;;22.88
12430;BMP280;6279;42.192;24.326;2022-10-19T14:11:01;98949.72;;;22.86
12430;BMP280;6279;42.192;24.326;2022-10-19T14:13:27;98941.72;;;22.81
12430;BMP280;6279;42.192;24.326;2022-10-19T14:15:54;98944.41;;;22.86
12430;BMP280;6279;42.192;24.326;2022-10-19T14:18:29;98947.50;;;22.78
12430;BMP280;6279;42.192;24.326;2022-10-19T14:21:06;98933.38;;;22.72
12430;BMP280;6279;42.192;24.326;2022-10-19T14:23:34;98929.81;;;22.83
12430;BMP280;6279;42.192;24.326;2022-10-19T14:26:02;98939.00;;;22.76
12430;BMP280;6279;42.192;24.326;2022-10-19T14:28:29;98939.66;;;22.66
12430;BMP280;6279;42.192;24.326;2022-10-19T14:31:01;98929.69;;;22.73
12430;BMP280;6279;42.192;24.326;2022-10-19T14:33:29;98935.16;;;22.67
12430;BMP280;6279;42.192;24.326;2022-10-19T14:35:56;98943.81;;;22.63
12430;BMP280;6279;42.192;24.326;2022-10-19T14:38:31;98942.03;;;22.52
12430;BMP280;6279;42.192;24.326;2022-10-19T14:40:57;98941.72;;;22.48
12430;BMP280;6279;42.192;24.326;2022-10-19T14:43:25;98938.84;;;22.34
12430;BMP280;6279;42.192;24.326;2022-10-19T14:48:38;98938.88;;;22.01
12430;BMP280;6279;42.192;24.326;2022-10-19T14:51:20;98945.28;;;22.05
12430;BMP280;6279;42.192;24.326;2022-10-19T14:53:51;98946.59;;;22.03
12430;BMP280;6279;42.192;24.326;2022-10-19T14:56:25;98954.31;;;21.93
12430;BMP280;6279;42.192;24.326;2022-10-19T15:01:20;98951.00;;;21.70
12430;BMP280;6279;42.192;24.326;2022-10-19T15:03:46;98949.91;;;21.55
12430;BMP280;6279;42.192;24.326;2022-10-19T15:06:21;98952.16;;;21.47
12430;BMP280;6279;42.192;24.326;2022-10-19T15:08:50;98953.00;;;21.36
12430;BMP280;6279;42.192;24.326;2022-10-19T15:11:24;98946.69;;;21.26
12430;BMP280;6279;42.192;24.326;2022-10-19T15:13:56;98940.97;;;21.06
12430;BMP280;6279;42.192;24.326;2022-10-19T15:19:27;98942.53;;;20.68
12430;BMP280;6279;42.192;24.326;2022-10-19T15:24:39;98949.50;;;20.18
12430;BMP280;6279;42.192;24.326;2022-10-19T15:27:10;98955.91;;;19.99
12430;BMP280;6279;42.192;24.326;2022-10-19T15:29:35;98950.69;;;19.82
12430;BMP280;6279;42.192;24.326;2022-10-19T15:32:22;98951.06;;;19.56
12430;BMP280;6279;42.192;24.326;2022-10-19T15:34:48;98948.81;;;19.42
12430;BMP280;6279;42.192;24.326;2022-10-19T15:37:22;98952.31;;;19.25
12430;BMP280;6279;42.192;24.326;2022-10-19T15:39:49;98964.13;;;19.05
12430;BMP280;6279;42.192;24.326;2022-10-19T15:42:37;98962.75;;;18.85
12430;BMP280;6279;42.192;24.326;2022-10-19T15:48:14;98963.34;;;18.45
12430;BMP280;6279;42.192;24.326;2022-10-19T15:50:45;98967.31;;;18.30
12430;BMP280;6279;42.192;24.326;2022-10-19T15:53:13;98977.16;;;18.17
12430;BMP280;6279;42.192;24.326;2022-10-19T15:55:39;98980.88;;;18.10
12430;BMP280;6279;42.192;24.326;2022-10-19T15:58:04;98982.78;;;17.97
12430;BMP280;6279;42.192;24.326;2022-10-19T16:00:30;98988.69;;;17.86
12430;BMP280;6279;42.192;24.326;2022-10-19T16:02:56;98990.84;;;17.71
12430;BMP280;6279;42.192;24.326;2022-10-19T16:05:22;99003.44;;;17.56
12430;BMP280;6279;42.192;24.326;2022-10-19T16:07:47;99005.13;;;17.45
12430;BMP280;6279;42.192;24.326;2022-10-19T16:10:24;98999.31;;;17.36
12430;BMP280;6279;42.192;24.326;2022-10-19T16:12:51;99011.69;;;17.23
12430;BMP280;6279;42.192;24.326;2022-10-19T16:15:19;99008.09;;;17.12
12430;BMP280;6279;42.192;24.326;2022-10-19T16:17:51;99012.56;;;17.05
12430;BMP280;6279;42.192;24.326;2022-10-19T16:20:20;99028.72;;;16.95
12430;BMP280;6279;42.192;24.326;2022-10-19T16:22:46;99025.72;;;16.86
12430;BMP280;6279;42.192;24.326;2022-10-19T16:25:12;99030.81;;;16.62
12430;BMP280;6279;42.192;24.326;2022-10-19T16:27:40;99038.50;;;16.57
12430;BMP280;6279;42.192;24.326;2022-10-19T16:30:06;99044.56;;;16.51
12430;BMP280;6279;42.192;24.326;2022-10-19T16:32:32;99057.28;;;16.47
12430;BMP280;6279;42.192;24.326;2022-10-19T16:34:57;99058.69;;;16.37
12430;BMP280;6279;42.192;24.326;2022-10-19T16:37:23;99059.09;;;16.41
12430;BMP280;6279;42.192;24.326;2022-10-19T16:39:48;99056.69;;;16.33
12430;BMP280;6279;42.192;24.326;2022-10-19T16:42:13;99067.16;;;16.26
12430;BMP280;6279;42.192;24.326;2022-10-19T16:44:39;99065.94;;;16.16
12430;BMP280;6279;42.192;24.326;2022-10-19T16:47:04;99079.41;;;16.01
12430;BMP280;6279;42.192;24.326;2022-10-19T16:49:30;99081.31;;;16.32
12430;BMP280;6279;42.192;24.326;2022-10-19T16:51:56;99092.00;;;16.43